sensor_id;sensor_type;location;lat;lon;timestamp;pressure;altitude;pressure_sealevel;temperature
69857;BMP280;57147;53.582;10.112;2023-02-21T00:00:12;101561.31;;;7.28
69857;BMP280;57147;53.582;10.112;2023-02-21T00:05:13;101517.44;;;7.27
69857;BMP280;57147;53.582;10.112;2023-02-21T00:10:15;101500.56;;;7.28
69857;BMP280;57147;53.582;10.112;2023-02-21T00:15:18;101526.97;;;7.28
69857;BMP280;57147;53.582;10.112;2023-02-21T00:20:19;101511.13;;;7.28
69857;BMP280;57147;53.582;10.112;2023-02-21T00:25:22;101487.47;;;7.16
69857;BMP280;57147;53.582;10.112;2023-02-21T00:30:25;101492.03;;;7.21
69857;BMP280;57147;53.582;10.112;2023-02-21T00:35:25;101493.06;;;7.20
69857;BMP280;57147;53.582;10.112;2023-02-21T00:40:26;101482.50;;;7.20
69857;BMP280;57147;53.582;10.112;2023-02-21T00:45:29;101489.31;;;7.16
69857;BMP280;57147;53.582;10.112;2023-02-21T00:50:30;101491.94;;;7.16
69857;BMP280;57147;53.582;10.112;2023-02-21T00:55:31;101504.59;;;7.14
69857;BMP280;57147;53.582;10.112;2023-02-21T01:00:34;101517.81;;;7.14
69857;BMP280;57147;53.582;10.112;2023-02-21T01:05:35;101514.59;;;7.12
69857;BMP280;57147;53.582;10.112;2023-02-21T01:10:35;101533.09;;;7.12
69857;BMP280;57147;53.582;10.112;2023-02-21T01:15:38;101519.34;;;7.10
69857;BMP280;57147;53.582;10.112;2023-02-21T01:20:39;101542.81;;;7.06
69857;BMP280;57147;53.582;10.112;2023-02-21T01:25:40;101545.13;;;7.03
69857;BMP280;57147;53.582;10.112;2023-02-21T01:30:43;101545.69;;;7.05
69857;BMP280;57147;53.582;10.112;2023-02-21T01:35:44;101538.78;;;7.04
69857;BMP280;57147;53.582;10.112;2023-02-21T01:40:44;101540.41;;;7.05
69857;BMP280;57147;53.582;10.112;2023-02-21T01:45:49;101536.16;;;7.04
69857;BMP280;57147;53.582;10.112;2023-02-21T01:50:50;101527.19;;;7.05
69857;BMP280;57147;53.582;10.112;2023-02-21T01:55:54;101528.19;;;6.99
69857;BMP280;57147;53.582;10.112;2023-02-21T02:00:57;101520.50;;;6.97
69857;BMP280;57147;53.582;10.112;2023-02-21T02:06:02;101511.78;;;6.97
69857;BMP280;57147;53.582;10.112;2023-02-21T02:11:07;101505.69;;;6.96
69857;BMP280;57147;53.582;10.112;2023-02-21T02:16:19;101513.31;;;6.93
69857;BMP280;57147;53.582;10.112;2023-02-21T02:21:41;101509.63;;;6.94
69857;BMP280;57147;53.582;10.112;2023-02-21T02:32:50;101513.31;;;6.93
69857;BMP280;57147;53.582;10.112;2023-02-21T02:38:01;101513.31;;;6.93
69857;BMP280;57147;53.582;10.112;2023-02-21T02:43:11;101493.78;;;6.94
69857;BMP280;57147;53.582;10.112;2023-02-21T02:48:19;101532.34;;;6.95
69857;BMP280;57147;53.582;10.112;2023-02-21T02:53:26;101683.31;;;6.92
69857;BMP280;57147;53.582;10.112;2023-02-21T02:58:27;101684.91;;;6.93
69857;BMP280;57147;53.582;10.112;2023-02-21T03:03:48;101745.41;;;6.94
69857;BMP280;57147;53.582;10.112;2023-02-21T03:09:00;101749.88;;;6.94
69857;BMP280;57147;53.582;10.112;2023-02-21T03:14:05;101766.75;;;6.93
69857;BMP280;57147;53.582;10.112;2023-02-21T03:19:11;101766.69;;;6.88
69857;BMP280;57147;53.582;10.112;2023-02-21T03:24:17;101759.22;;;6.84
69857;BMP280;57147;53.582;10.112;2023-02-21T03:29:18;101753.47;;;6.88
69857;BMP280;57147;53.582;10.112;2023-02-21T03:34:19;101767.72;;;6.86
69857;BMP280;57147;53.582;10.112;2023-02-21T03:39:22;101759.22;;;6.84
69857;BMP280;57147;53.582;10.112;2023-02-21T03:44:23;101761.22;;;6.77
69857;BMP280;57147;53.582;10.112;2023-02-21T03:49:24;101784.41;;;6.75
69857;BMP280;57147;53.582;10.112;2023-02-21T03:54:27;101815.50;;;6.73
69857;BMP280;57147;53.582;10.112;2023-02-21T03:59:27;101857.09;;;6.66
69857;BMP280;57147;53.582;10.112;2023-02-21T04:04:28;101888.41;;;6.63
69857;BMP280;57147;53.582;10.112;2023-02-21T04:09:31;101960.47;;;6.63
69857;BMP280;57147;53.582;10.112;2023-02-21T04:14:32;101966.16;;;6.55
69857;BMP280;57147;53.582;10.112;2023-02-21T04:19:33;101731.06;;;6.57
69857;BMP280;57147;53.582;10.112;2023-02-21T04:24:36;101749.28;;;6.58
69857;BMP280;57147;53.582;10.112;2023-02-21T04:29:37;101747.69;;;6.57
69857;BMP280;57147;53.582;10.112;2023-02-21T04:34:37;101757.09;;;6.53
69857;BMP280;57147;53.582;10.112;2023-02-21T04:39:41;101768.69;;;6.52
69857;BMP280;57147;53.582;10.112;2023-02-21T04:44:41;101784.75;;;6.51
69857;BMP280;57147;53.582;10.112;2023-02-21T04:49:42;101778.94;;;6.37
69857;BMP280;57147;53.582;10.112;2023-02-21T04:54:45;101834.47;;;6.19
69857;BMP280;57147;53.582;10.112;2023-02-21T04:59:46;101972.28;;;6.02
69857;BMP280;57147;53.582;10.112;2023-02-21T05:04:47;101932.38;;;5.87
69857;BMP280;57147;53.582;10.112;2023-02-21T05:09:50;101959.63;;;5.81
69857;BMP280;57147;53.582;10.112;2023-02-21T05:14:51;101967.84;;;5.73
69857;BMP280;57147;53.582;10.112;2023-02-21T05:19:52;101901.50;;;5.76
69857;BMP280;57147;53.582;10.112;2023-02-21T05:24:55;101909.41;;;5.76
69857;BMP280;57147;53.582;10.112;2023-02-21T05:29:56;101913.41;;;5.79
69857;BMP280;57147;53.582;10.112;2023-02-21T05:34:56;101885.47;;;5.77
69857;BMP280;57147;53.582;10.112;2023-02-21T05:39:59;101868.41;;;5.80
69857;BMP280;57147;53.582;10.112;2023-02-21T05:45:00;101865.88;;;5.73
69857;BMP280;57147;53.582;10.112;2023-02-21T05:50:01;101843.44;;;5.71
69857;BMP280;57147;53.582;10.112;2023-02-21T05:55:05;101872.06;;;5.79
69857;BMP280;57147;53.582;10.112;2023-02-21T06:00:07;101936.47;;;5.83
69857;BMP280;57147;53.582;10.112;2023-02-21T06:05:08;101957.56;;;5.83
69857;BMP280;57147;53.582;10.112;2023-02-21T06:10:11;101836.91;;;5.85
69857;BMP280;57147;53.582;10.112;2023-02-21T06:15:12;101824.97;;;5.94
69857;BMP280;57147;53.582;10.112;2023-02-21T06:20:13;101694.66;;;5.90
69857;BMP280;57147;53.582;10.112;2023-02-21T06:25:17;101697.22;;;5.85
69857;BMP280;57147;53.582;10.112;2023-02-21T06:30:17;101689.75;;;5.82
69857;BMP280;57147;53.582;10.112;2023-02-21T06:35:18;101720.47;;;5.76
69857;BMP280;57147;53.582;10.112;2023-02-21T06:40:21;101713.63;;;5.75
69857;BMP280;57147;53.582;10.112;2023-02-21T06:45:22;101727.34;;;5.77
69857;BMP280;57147;53.582;10.112;2023-02-21T06:50:22;101729.97;;;5.77
69857;BMP280;57147;53.582;10.112;2023-02-21T06:55:26;101725.63;;;5.83
69857;BMP280;57147;53.582;10.112;2023-02-21T07:00:28;101734.56;;;5.82
69857;BMP280;57147;53.582;10.112;2023-02-21T07:05:28;101602.41;;;5.90
69857;BMP280;57147;53.582;10.112;2023-02-21T07:10:31;101613.53;;;5.92
69857;BMP280;57147;53.582;10.112;2023-02-21T07:15:32;101563.06;;;6.00
69857;BMP280;57147;53.582;10.112;2023-02-21T07:20:33;101539.59;;;5.99
69857;BMP280;57147;53.582;10.112;2023-02-21T07:25:36;101636.13;;;6.17
69857;BMP280;57147;53.582;10.112;2023-02-21T07:30:40;101600.53;;;6.31
69857;BMP280;57147;53.582;10.112;2023-02-21T07:35:40;101585.91;;;6.40
69857;BMP280;57147;53.582;10.112;2023-02-21T07:40:43;101555.63;;;6.42
69857;BMP280;57147;53.582;10.112;2023-02-21T07:45:44;101562.31;;;6.50
69857;BMP280;57147;53.582;10.112;2023-02-21T07:50:45;101558.78;;;6.61
69857;BMP280;57147;53.582;10.112;2023-02-21T07:55:48;101542.81;;;6.68
69857;BMP280;57147;53.582;10.112;2023-02-21T08:00:49;101537.81;;;6.71
69857;BMP280;57147;53.582;10.112;2023-02-21T08:05:50;101534.78;;;6.79
69857;BMP280;57147;53.582;10.112;2023-02-21T08:10:53;101510.28;;;6.84
69857;BMP280;57147;53.582;10.112;2023-02-21T08:15:54;101507.88;;;6.82
69857;BMP280;57147;53.582;10.112;2023-02-21T08:20:55;101506.22;;;6.76
69857;BMP280;57147;53.582;10.112;2023-02-21T08:25:59;101493.66;;;6.83
69857;BMP280;57147;53.582;10.112;2023-02-21T08:31:00;101470.78;;;6.72
69857;BMP280;57147;53.582;10.112;2023-02-21T08:36:01;101517.25;;;6.73
69857;BMP280;57147;53.582;10.112;2023-02-21T08:41:04;101492.97;;;6.93
69857;BMP280;57147;53.582;10.112;2023-02-21T08:46:05;101462.84;;;7.11
69857;BMP280;57147;53.582;10.112;2023-02-21T08:51:05;101412.13;;;7.09
69857;BMP280;57147;53.582;10.112;2023-02-21T08:56:09;101373.69;;;7.23
69857;BMP280;57147;53.582;10.112;2023-02-21T09:01:09;101378.19;;;7.54
69857;BMP280;57147;53.582;10.112;2023-02-21T09:06:16;101355.00;;;7.61
69857;BMP280;57147;53.582;10.112;2023-02-21T09:11:20;101360.88;;;7.74
69857;BMP280;57147;53.582;10.112;2023-02-21T09:16:21;101355.53;;;7.63
69857;BMP280;57147;53.582;10.112;2023-02-21T09:21:22;101344.59;;;7.87
69857;BMP280;57147;53.582;10.112;2023-02-21T09:26:25;101338.53;;;7.91
69857;BMP280;57147;53.582;10.112;2023-02-21T09:31:26;101345.88;;;7.79
69857;BMP280;57147;53.582;10.112;2023-02-21T09:36:27;101332.19;;;7.92
69857;BMP280;57147;53.582;10.112;2023-02-21T09:41:30;101354.53;;;7.70
69857;BMP280;57147;53.582;10.112;2023-02-21T09:46:33;101356.69;;;7.78
69857;BMP280;57147;53.582;10.112;2023-02-21T09:51:36;101360.69;;;7.80
69857;BMP280;57147;53.582;10.112;2023-02-21T09:56:39;101376.91;;;7.94
69857;BMP280;57147;53.582;10.112;2023-02-21T10:01:49;101374.31;;;7.99
69857;BMP280;57147;53.582;10.112;2023-02-21T10:06:58;101357.66;;;8.76
69857;BMP280;57147;53.582;10.112;2023-02-21T10:12:09;101373.56;;;8.71
69857;BMP280;57147;53.582;10.112;2023-02-21T10:17:15;101370.28;;;8.44
69857;BMP280;57147;53.582;10.112;2023-02-21T10:22:19;101383.50;;;8.44
69857;BMP280;57147;53.582;10.112;2023-02-21T10:27:27;101372.16;;;8.58
69857;BMP280;57147;53.582;10.112;2023-02-21T10:32:30;101382.50;;;8.55
69857;BMP280;57147;53.582;10.112;2023-02-21T10:37:36;101373.28;;;8.72
69857;BMP280;57147;53.582;10.112;2023-02-21T10:42:44;101376.78;;;8.88
69857;BMP280;57147;53.582;10.112;2023-02-21T10:47:52;101387.31;;;8.73
69857;BMP280;57147;53.582;10.112;2023-02-21T10:52:55;101388.19;;;9.19
69857;BMP280;57147;53.582;10.112;2023-02-21T10:58:09;101385.28;;;9.10
69857;BMP280;57147;53.582;10.112;2023-02-21T11:03:21;101390.56;;;9.56
69857;BMP280;57147;53.582;10.112;2023-02-21T11:08:32;101385.81;;;9.28
69857;BMP280;57147;53.582;10.112;2023-02-21T11:13:37;101402.78;;;9.22
69857;BMP280;57147;53.582;10.112;2023-02-21T11:18:37;101414.97;;;9.38
69857;BMP280;57147;53.582;10.112;2023-02-21T11:23:44;101402.22;;;9.14
69857;BMP280;57147;53.582;10.112;2023-02-21T11:28:49;101384.75;;;9.03
69857;BMP280;57147;53.582;10.112;2023-02-21T11:33:55;101397.47;;;9.37
69857;BMP280;57147;53.582;10.112;2023-02-21T11:39:04;101405.94;;;9.74
69857;BMP280;57147;53.582;10.112;2023-02-21T11:44:27;101397.22;;;9.43
69857;BMP280;57147;53.582;10.112;2023-02-21T11:49:35;101386.88;;;9.62
69857;BMP280;57147;53.582;10.112;2023-02-21T11:54:37;101387.13;;;9.66
69857;BMP280;57147;53.582;10.112;2023-02-21T11:59:45;101386.84;;;9.72
69857;BMP280;57147;53.582;10.112;2023-02-21T12:05:02;101388.47;;;9.68
69857;BMP280;57147;53.582;10.112;2023-02-21T12:10:21;101386.31;;;9.65
69857;BMP280;57147;53.582;10.112;2023-02-21T12:15:42;101406.50;;;9.51
69857;BMP280;57147;53.582;10.112;2023-02-21T12:21:11;101394.81;;;9.42
69857;BMP280;57147;53.582;10.112;2023-02-21T12:26:24;101389.53;;;9.42
69857;BMP280;57147;53.582;10.112;2023-02-21T12:31:40;101376.69;;;10.10
69857;BMP280;57147;53.582;10.112;2023-02-21T12:36:50;101387.91;;;9.76
69857;BMP280;57147;53.582;10.112;2023-02-21T12:42:11;101382.63;;;9.66
69857;BMP280;57147;53.582;10.112;2023-02-21T12:47:23;101388.44;;;9.83
69857;BMP280;57147;53.582;10.112;2023-02-21T12:52:29;101383.16;;;9.53
69857;BMP280;57147;53.582;10.112;2023-02-21T12:57:35;101391.09;;;9.58
69857;BMP280;57147;53.582;10.112;2023-02-21T13:02:44;101382.38;;;9.52
69857;BMP280;57147;53.582;10.112;2023-02-21T13:07:51;101395.88;;;9.21
69857;BMP280;57147;53.582;10.112;2023-02-21T13:12:56;101377.34;;;9.15
69857;BMP280;57147;53.582;10.112;2023-02-21T13:18:06;101389.00;;;9.04
69857;BMP280;57147;53.582;10.112;2023-02-21T13:28:37;101391.09;;;9.07
69857;BMP280;57147;53.582;10.112;2023-02-21T13:33:42;101386.63;;;9.18
69857;BMP280;57147;53.582;10.112;2023-02-21T13:38:43;101384.22;;;9.42
69857;BMP280;57147;53.582;10.112;2023-02-21T13:43:46;101382.34;;;9.58
69857;BMP280;57147;53.582;10.112;2023-02-21T13:54:23;101391.13;;;9.12
69857;BMP280;57147;53.582;10.112;2023-02-21T13:59:33;101395.34;;;9.24
69857;BMP280;57147;53.582;10.112;2023-02-21T14:05:01;101391.13;;;9.43
69857;BMP280;57147;53.582;10.112;2023-02-21T14:10:16;101399.84;;;9.33
69857;BMP280;57147;53.582;10.112;2023-02-21T14:15:19;101403.84;;;9.05
69857;BMP280;57147;53.582;10.112;2023-02-21T14:20:21;101374.91;;;8.84
69857;BMP280;57147;53.582;10.112;2023-02-21T14:25:25;101372.00;;;8.85
69857;BMP280;57147;53.582;10.112;2023-02-21T14:30:29;101352.88;;;8.63
69857;BMP280;57147;53.582;10.112;2023-02-21T14:35:33;101358.13;;;8.53
69857;BMP280;57147;53.582;10.112;2023-02-21T14:40:46;101363.47;;;8.63
69857;BMP280;57147;53.582;10.112;2023-02-21T14:46:05;101354.19;;;8.60
69857;BMP280;57147;53.582;10.112;2023-02-21T14:51:31;101350.75;;;8.65
69857;BMP280;57147;53.582;10.112;2023-02-21T14:56:57;101360.78;;;8.58
69857;BMP280;57147;53.582;10.112;2023-02-21T15:02:12;101358.69;;;8.60
69857;BMP280;57147;53.582;10.112;2023-02-21T15:07:20;101364.91;;;8.23
69857;BMP280;57147;53.582;10.112;2023-02-21T15:12:26;101368.63;;;8.32
69857;BMP280;57147;53.582;10.112;2023-02-21T15:17:27;101371.56;;;8.36
69857;BMP280;57147;53.582;10.112;2023-02-21T15:22:30;101379.13;;;8.12
69857;BMP280;57147;53.582;10.112;2023-02-21T15:27:34;101378.00;;;7.98
69857;BMP280;57147;53.582;10.112;2023-02-21T15:32:35;101384.59;;;7.95
69857;BMP280;57147;53.582;10.112;2023-02-21T15:37:38;101379.94;;;8.13
69857;BMP280;57147;53.582;10.112;2023-02-21T15:42:42;101374.81;;;7.96
69857;BMP280;57147;53.582;10.112;2023-02-21T15:47:44;101375.28;;;7.88
69857;BMP280;57147;53.582;10.112;2023-02-21T15:52:46;101377.44;;;7.96
69857;BMP280;57147;53.582;10.112;2023-02-21T15:57:58;101382.69;;;7.91
69857;BMP280;57147;53.582;10.112;2023-02-21T16:03:31;101394.00;;;7.81
69857;BMP280;57147;53.582;10.112;2023-02-21T16:08:32;101385.31;;;7.91
69857;BMP280;57147;53.582;10.112;2023-02-21T16:13:39;101387.28;;;7.69
69857;BMP280;57147;53.582;10.112;2023-02-21T16:18:40;101416.88;;;7.66
69857;BMP280;57147;53.582;10.112;2023-02-21T16:23:41;101411.00;;;7.58
69857;BMP280;57147;53.582;10.112;2023-02-21T16:28:45;101418.81;;;7.43
69857;BMP280;57147;53.582;10.112;2023-02-21T16:33:48;101427.84;;;7.52
69857;BMP280;57147;53.582;10.112;2023-02-21T16:38:49;101443.91;;;7.46
69857;BMP280;57147;53.582;10.112;2023-02-21T16:43:53;101443.13;;;7.45
69857;BMP280;57147;53.582;10.112;2023-02-21T16:48:54;101480.94;;;7.24
69857;BMP280;57147;53.582;10.112;2023-02-21T16:53:55;101489.97;;;7.28
69857;BMP280;57147;53.582;10.112;2023-02-21T16:58:58;101490.78;;;7.29
69857;BMP280;57147;53.582;10.112;2023-02-21T17:03:59;101501.53;;;7.22
69857;BMP280;57147;53.582;10.112;2023-02-21T17:09:00;101507.34;;;7.24
69857;BMP280;57147;53.582;10.112;2023-02-21T17:14:03;101513.69;;;7.23
69857;BMP280;57147;53.582;10.112;2023-02-21T17:19:04;101518.38;;;7.38
69857;BMP280;57147;53.582;10.112;2023-02-21T17:24:05;101505.59;;;7.30
69857;BMP280;57147;53.582;10.112;2023-02-21T17:29:08;101515.47;;;7.17
69857;BMP280;57147;53.582;10.112;2023-02-21T17:34:11;101524.25;;;7.23
69857;BMP280;57147;53.582;10.112;2023-02-21T17:39:14;101535.69;;;7.07
69857;BMP280;57147;53.582;10.112;2023-02-21T17:44:18;101541.56;;;7.14
69857;BMP280;57147;53.582;10.112;2023-02-21T17:49:22;101553.44;;;7.11
69857;BMP280;57147;53.582;10.112;2023-02-21T17:54:23;101557.25;;;7.20
69857;BMP280;57147;53.582;10.112;2023-02-21T17:59:27;101568.50;;;7.11
69857;BMP280;57147;53.582;10.112;2023-02-21T18:04:27;101588.34;;;6.97
69857;BMP280;57147;53.582;10.112;2023-02-21T18:09:28;101626.81;;;6.93
69857;BMP280;57147;53.582;10.112;2023-02-21T18:14:32;101641.00;;;6.86
69857;BMP280;57147;53.582;10.112;2023-02-21T18:19:33;101658.59;;;6.98
69857;BMP280;57147;53.582;10.112;2023-02-21T18:24:34;101663.13;;;7.02
69857;BMP280;57147;53.582;10.112;2023-02-21T18:29:38;101661.66;;;6.90
69857;BMP280;57147;53.582;10.112;2023-02-21T18:34:38;101671.06;;;7.02
69857;BMP280;57147;53.582;10.112;2023-02-21T18:39:39;101663.22;;;6.91
69857;BMP280;57147;53.582;10.112;2023-02-21T18:44:42;101671.25;;;6.96
69857;BMP280;57147;53.582;10.112;2023-02-21T18:49:43;101667.09;;;7.00
69857;BMP280;57147;53.582;10.112;2023-02-21T18:54:44;101671.25;;;6.96
69857;BMP280;57147;53.582;10.112;2023-02-21T18:59:47;101675.88;;;7.05
69857;BMP280;57147;53.582;10.112;2023-02-21T19:04:48;101666.75;;;7.13
69857;BMP280;57147;53.582;10.112;2023-02-21T19:09:49;101698.63;;;6.90
69857;BMP280;57147;53.582;10.112;2023-02-21T19:14:52;101702.41;;;6.65
69857;BMP280;57147;53.582;10.112;2023-02-21T19:19:52;101647.41;;;6.57
69857;BMP280;57147;53.582;10.112;2023-02-21T19:24:53;101962.66;;;6.66
69857;BMP280;57147;53.582;10.112;2023-02-21T19:29:58;101968.28;;;6.58
69857;BMP280;57147;53.582;10.112;2023-02-21T19:34:59;101951.63;;;6.69
69857;BMP280;57147;53.582;10.112;2023-02-21T19:40:04;101952.31;;;6.76
69857;BMP280;57147;53.582;10.112;2023-02-21T19:45:08;101960.44;;;6.86
69857;BMP280;57147;53.582;10.112;2023-02-21T19:50:09;101962.03;;;6.99
69857;BMP280;57147;53.582;10.112;2023-02-21T20:06:13;101963.75;;;6.94
69857;BMP280;57147;53.582;10.112;2023-02-21T20:11:14;101953.41;;;6.92
69857;BMP280;57147;53.582;10.112;2023-02-21T20:21:48;101943.84;;;7.14
69857;BMP280;57147;53.582;10.112;2023-02-21T20:26:49;101982.56;;;7.09
69857;BMP280;57147;53.582;10.112;2023-02-21T20:31:53;101980.91;;;7.31
69857;BMP280;57147;53.582;10.112;2023-02-21T20:36:56;101990.00;;;7.12
69857;BMP280;57147;53.582;10.112;2023-02-21T20:41:59;101979.09;;;7.20
69857;BMP280;57147;53.582;10.112;2023-02-21T20:47:00;101973.00;;;7.19
69857;BMP280;57147;53.582;10.112;2023-02-21T20:52:04;101972.47;;;7.06
69857;BMP280;57147;53.582;10.112;2023-02-21T20:57:07;101938.00;;;7.01
69857;BMP280;57147;53.582;10.112;2023-02-21T21:02:08;101926.31;;;6.97
69857;BMP280;57147;53.582;10.112;2023-02-21T21:07:16;101912.09;;;6.98
69857;BMP280;57147;53.582;10.112;2023-02-21T21:12:20;101880.13;;;7.11
69857;BMP280;57147;53.582;10.112;2023-02-21T21:17:21;101884.28;;;7.07
69857;BMP280;57147;53.582;10.112;2023-02-21T21:22:26;101912.81;;;6.81
69857;BMP280;57147;53.582;10.112;2023-02-21T21:27:27;101879.63;;;6.85
69857;BMP280;57147;53.582;10.112;2023-02-21T21:32:28;101888.22;;;6.93
69857;BMP280;57147;53.582;10.112;2023-02-21T21:37:32;101901.53;;;6.98
69857;BMP280;57147;53.582;10.112;2023-02-21T21:42:33;101907.63;;;6.98
69857;BMP280;57147;53.582;10.112;2023-02-21T21:47:36;101913.41;;;7.12
69857;BMP280;57147;53.582;10.112;2023-02-21T21:52:39;101930.84;;;7.13
69857;BMP280;57147;53.582;10.112;2023-02-21T21:57:40;101927.28;;;7.19
69857;BMP280;57147;53.582;10.112;2023-02-21T22:02:40;101912.66;;;7.28
69857;BMP280;57147;53.582;10.112;2023-02-21T22:07:43;101921.34;;;7.40
69857;BMP280;57147;53.582;10.112;2023-02-21T22:12:45;101878.31;;;7.28
69857;BMP280;57147;53.582;10.112;2023-02-21T22:17:46;101851.84;;;7.40
69857;BMP280;57147;53.582;10.112;2023-02-21T22:22:50;101863.09;;;7.52
69857;BMP280;57147;53.582;10.112;2023-02-21T22:27:51;101859.03;;;7.44
69857;BMP280;57147;53.582;10.112;2023-02-21T22:32:52;101870.09;;;7.41
69857;BMP280;57147;53.582;10.112;2023-02-21T22:37:56;101856.47;;;7.49
69857;BMP280;57147;53.582;10.112;2023-02-21T22:42:59;101859.09;;;7.49
69857;BMP280;57147;53.582;10.112;2023-02-21T22:48:01;101845.88;;;7.49
69857;BMP280;57147;53.582;10.112;2023-02-21T22:53:07;101821.69;;;7.57
69857;BMP280;57147;53.582;10.112;2023-02-21T22:58:09;101827.44;;;7.54
69857;BMP280;57147;53.582;10.112;2023-02-21T23:03:10;101812.72;;;7.58
69857;BMP280;57147;53.582;10.112;2023-02-21T23:08:14;101801.69;;;7.61
69857;BMP280;57147;53.582;10.112;2023-02-21T23:13:17;101821.69;;;7.57
69857;BMP280;57147;53.582;10.112;2023-02-21T23:18:18;101824.91;;;7.59
69857;BMP280;57147;53.582;10.112;2023-02-21T23:23:24;101836.84;;;7.45
69857;BMP280;57147;53.582;10.112;2023-02-21T23:28:26;101854.38;;;7.51
69857;BMP280;57147;53.582;10.112;2023-02-21T23:33:29;101857.44;;;7.43
69857;BMP280;57147;53.582;10.112;2023-02-21T23:38:32;101865.66;;;7.47
69857;BMP280;57147;53.582;10.112;2023-02-21T23:43:34;101874.38;;;7.47
69857;BMP280;57147;53.582;10.112;2023-02-21T23:48:35;101900.50;;;7.27
69857;BMP280;57147;53.582;10.112;2023-02-21T23:53:39;101921.00;;;7.37
69857;BMP280;57147;53.582;10.112;2023-02-21T23:58:43;101915.72;;;7.37
